sensor_id;sensor_type;location;lat;lon;timestamp;temperature;humidity
6756;DHT22;3415;51.148;7.014;2024-01-15T07:19:35;1.40;1.00
6756;DHT22;3415;51.148;7.014;2024-01-15T07:22:02;1.30;1.00
6756;DHT22;3415;51.148;7.014;2024-01-15T07:24:29;1.20;1.00
6756;DHT22;3415;51.148;7.014;2024-01-15T07:29:23;1.20;1.00
6756;DHT22;3415;51.148;7.014;2024-01-15T07:31:50;1.20;1.00
6756;DHT22;3415;51.148;7.014;2024-01-15T07:34:17;1.20;1.00
6756;DHT22;3415;51.148;7.014;2024-01-15T07:36:45;1.20;1.00
6756;DHT22;3415;51.148;7.014;2024-01-15T07:39:12;1.20;1.00
6756;DHT22;3415;51.148;7.014;2024-01-15T07:41:40;1.20;1.00
6756;DHT22;3415;51.148;7.014;2024-01-15T07:44:07;1.20;1.00
6756;DHT22;3415;51.148;7.014;2024-01-15T07:46:33;1.20;1.00
6756;DHT22;3415;51.148;7.014;2024-01-15T07:49:00;1.30;1.00
6756;DHT22;3415;51.148;7.014;2024-01-15T07:51:27;1.30;1.00
6756;DHT22;3415;51.148;7.014;2024-01-15T07:53:56;1.30;1.00
6756;DHT22;3415;51.148;7.014;2024-01-15T07:56:23;1.40;1.00
6756;DHT22;3415;51.148;7.014;2024-01-15T07:58:50;1.30;1.00
6756;DHT22;3415;51.148;7.014;2024-01-15T08:01:16;1.30;1.00
6756;DHT22;3415;51.148;7.014;2024-01-15T08:03:43;1.30;1.00
6756;DHT22;3415;51.148;7.014;2024-01-15T08:06:10;1.30;1.00
6756;DHT22;3415;51.148;7.014;2024-01-15T08:08:37;1.30;1.00
6756;DHT22;3415;51.148;7.014;2024-01-15T08:11:05;1.30;1.00
6756;DHT22;3415;51.148;7.014;2024-01-15T08:13:32;1.20;1.00
6756;DHT22;3415;51.148;7.014;2024-01-15T08:15:59;1.20;1.00
6756;DHT22;3415;51.148;7.014;2024-01-15T08:18:26;1.20;1.00
6756;DHT22;3415;51.148;7.014;2024-01-15T08:20:52;1.20;1.00
6756;DHT22;3415;51.148;7.014;2024-01-15T08:23:19;1.20;1.00
6756;DHT22;3415;51.148;7.014;2024-01-15T08:25:47;1.20;1.00
6756;DHT22;3415;51.148;7.014;2024-01-15T08:28:16;1.20;1.00
6756;DHT22;3415;51.148;7.014;2024-01-15T08:30:43;1.20;1.00
6756;DHT22;3415;51.148;7.014;2024-01-15T08:33:10;1.20;1.00
6756;DHT22;3415;51.148;7.014;2024-01-15T08:35:38;1.20;1.00
6756;DHT22;3415;51.148;7.014;2024-01-15T08:38:05;1.20;1.00
6756;DHT22;3415;51.148;7.014;2024-01-15T08:40:32;1.50;1.00
6756;DHT22;3415;51.148;7.014;2024-01-15T08:42:59;1.20;1.00
6756;DHT22;3415;51.148;7.014;2024-01-15T08:45:28;1.20;1.00
6756;DHT22;3415;51.148;7.014;2024-01-15T08:47:55;1.10;1.00
6756;DHT22;3415;51.148;7.014;2024-01-15T08:50:22;1.10;1.00
6756;DHT22;3415;51.148;7.014;2024-01-15T08:52:49;1.10;1.00
6756;DHT22;3415;51.148;7.014;2024-01-15T08:55:16;1.10;1.00
6756;DHT22;3415;51.148;7.014;2024-01-15T09:00:11;1.00;1.00
6756;DHT22;3415;51.148;7.014;2024-01-15T09:02:39;1.00;1.00
6756;DHT22;3415;51.148;7.014;2024-01-15T09:05:06;0.90;1.00
6756;DHT22;3415;51.148;7.014;2024-01-15T09:10:00;0.90;1.00
6756;DHT22;3415;51.148;7.014;2024-01-15T09:12:28;0.90;1.00
6756;DHT22;3415;51.148;7.014;2024-01-15T09:14:55;0.90;1.00
6756;DHT22;3415;51.148;7.014;2024-01-15T09:17:21;0.80;1.00
6756;DHT22;3415;51.148;7.014;2024-01-15T09:19:50;0.80;1.00
6756;DHT22;3415;51.148;7.014;2024-01-15T09:22:17;0.90;1.00
6756;DHT22;3415;51.148;7.014;2024-01-15T09:24:44;0.90;1.00
6756;DHT22;3415;51.148;7.014;2024-01-15T09:27:11;1.10;1.00
6756;DHT22;3415;51.148;7.014;2024-01-15T09:29:37;0.90;15.50
6756;DHT22;3415;51.148;7.014;2024-01-15T09:32:06;0.90;18.00
6756;DHT22;3415;51.148;7.014;2024-01-15T09:34:33;0.80;17.90
6756;DHT22;3415;51.148;7.014;2024-01-15T09:37:02;1.00;19.40
6756;DHT22;3415;51.148;7.014;2024-01-15T09:39:29;0.90;19.30
6756;DHT22;3415;51.148;7.014;2024-01-15T09:41:57;0.90;19.60
6756;DHT22;3415;51.148;7.014;2024-01-15T09:44:25;0.90;31.60
6756;DHT22;3415;51.148;7.014;2024-01-15T09:46:53;0.90;33.70
6756;DHT22;3415;51.148;7.014;2024-01-15T09:49:22;0.90;36.90
6756;DHT22;3415;51.148;7.014;2024-01-15T09:51:48;0.90;44.40
6756;DHT22;3415;51.148;7.014;2024-01-15T09:54:17;1.10;48.80
6756;DHT22;3415;51.148;7.014;2024-01-15T09:56:47;0.90;51.00
6756;DHT22;3415;51.148;7.014;2024-01-15T09:59:15;0.90;56.00
6756;DHT22;3415;51.148;7.014;2024-01-15T10:01:43;0.90;57.10
6756;DHT22;3415;51.148;7.014;2024-01-15T10:04:10;0.90;63.80
6756;DHT22;3415;51.148;7.014;2024-01-15T10:06:38;0.90;64.50
6756;DHT22;3415;51.148;7.014;2024-01-15T10:09:06;1.10;71.00
6756;DHT22;3415;51.148;7.014;2024-01-15T10:11:35;1.10;69.50
6756;DHT22;3415;51.148;7.014;2024-01-15T10:14:03;1.10;69.50
6756;DHT22;3415;51.148;7.014;2024-01-15T10:18:58;1.10;63.60
6756;DHT22;3415;51.148;7.014;2024-01-15T10:21:25;1.10;56.20
6756;DHT22;3415;51.148;7.014;2024-01-15T10:23:52;1.10;56.90
6756;DHT22;3415;51.148;7.014;2024-01-15T10:26:24;1.00;36.30
6756;DHT22;3415;51.148;7.014;2024-01-15T10:28:52;1.10;35.10
6756;DHT22;3415;51.148;7.014;2024-01-15T10:33:47;1.10;32.00
6756;DHT22;3415;51.148;7.014;2024-01-15T10:36:16;1.30;34.40
6756;DHT22;3415;51.148;7.014;2024-01-15T10:38:43;1.10;25.30
6756;DHT22;3415;51.148;7.014;2024-01-15T10:41:10;1.10;18.30
6756;DHT22;3415;51.148;7.014;2024-01-15T10:43:36;1.10;19.60
6756;DHT22;3415;51.148;7.014;2024-01-15T10:46:05;1.10;18.10
6756;DHT22;3415;51.148;7.014;2024-01-15T10:48:33;1.10;18.10
6756;DHT22;3415;51.148;7.014;2024-01-15T10:51:01;1.10;18.10
6756;DHT22;3415;51.148;7.014;2024-01-15T10:53:36;1.10;19.30
6756;DHT22;3415;51.148;7.014;2024-01-15T10:56:05;1.10;9.40
6756;DHT22;3415;51.148;7.014;2024-01-15T10:58:33;1.10;3.40
6756;DHT22;3415;51.148;7.014;2024-01-15T11:01:00;1.10;3.10
6756;DHT22;3415;51.148;7.014;2024-01-15T11:03:29;1.10;4.00
6756;DHT22;3415;51.148;7.014;2024-01-15T11:05:56;1.10;7.00
6756;DHT22;3415;51.148;7.014;2024-01-15T11:08:24;1.10;6.00
6756;DHT22;3415;51.148;7.014;2024-01-15T11:10:51;1.30;7.50
6756;DHT22;3415;51.148;7.014;2024-01-15T11:13:20;1.10;6.00
6756;DHT22;3415;51.148;7.014;2024-01-15T11:15:58;1.20;8.80
6756;DHT22;3415;51.148;7.014;2024-01-15T11:18:28;1.20;11.00
6756;DHT22;3415;51.148;7.014;2024-01-15T11:21:29;1.30;13.20
6756;DHT22;3415;51.148;7.014;2024-01-15T11:23:57;1.40;1.00
6756;DHT22;3415;51.148;7.014;2024-01-15T11:26:29;1.40;1.00
6756;DHT22;3415;51.148;7.014;2024-01-15T11:28:56;1.40;1.00
6756;DHT22;3415;51.148;7.014;2024-01-15T11:31:27;1.20;1.00
6756;DHT22;3415;51.148;7.014;2024-01-15T11:33:55;1.20;1.00
6756;DHT22;3415;51.148;7.014;2024-01-15T11:37:00;1.20;1.00
6756;DHT22;3415;51.148;7.014;2024-01-15T11:39:40;1.10;1.00
6756;DHT22;3415;51.148;7.014;2024-01-15T11:42:10;1.20;1.00
6756;DHT22;3415;51.148;7.014;2024-01-15T11:44:37;1.20;1.00
6756;DHT22;3415;51.148;7.014;2024-01-15T11:47:05;1.20;1.00
6756;DHT22;3415;51.148;7.014;2024-01-15T11:50:01;1.30;1.00
6756;DHT22;3415;51.148;7.014;2024-01-15T11:52:32;1.30;1.00
6756;DHT22;3415;51.148;7.014;2024-01-15T11:55:11;1.40;1.00
6756;DHT22;3415;51.148;7.014;2024-01-15T11:57:41;1.30;1.00
6756;DHT22;3415;51.148;7.014;2024-01-15T12:00:10;1.40;1.00
6756;DHT22;3415;51.148;7.014;2024-01-15T12:02:38;1.40;1.00
6756;DHT22;3415;51.148;7.014;2024-01-15T12:05:07;1.30;1.00
6756;DHT22;3415;51.148;7.014;2024-01-15T12:07:34;1.40;1.00
6756;DHT22;3415;51.148;7.014;2024-01-15T12:10:01;1.40;1.00
6756;DHT22;3415;51.148;7.014;2024-01-15T12:12:36;1.40;1.00
6756;DHT22;3415;51.148;7.014;2024-01-15T12:15:04;1.50;1.00
6756;DHT22;3415;51.148;7.014;2024-01-15T12:17:31;1.60;1.00
6756;DHT22;3415;51.148;7.014;2024-01-15T12:19:59;1.70;1.00
6756;DHT22;3415;51.148;7.014;2024-01-15T12:22:27;1.70;1.00
6756;DHT22;3415;51.148;7.014;2024-01-15T12:27:23;1.60;1.00
6756;DHT22;3415;51.148;7.014;2024-01-15T12:29:50;1.60;1.00
6756;DHT22;3415;51.148;7.014;2024-01-15T12:32:18;1.60;1.00
6756;DHT22;3415;51.148;7.014;2024-01-15T12:34:46;1.60;1.00
6756;DHT22;3415;51.148;7.014;2024-01-15T12:37:12;1.50;1.00
6756;DHT22;3415;51.148;7.014;2024-01-15T12:39:42;1.50;1.00
6756;DHT22;3415;51.148;7.014;2024-01-15T12:42:09;1.50;1.00
6756;DHT22;3415;51.148;7.014;2024-01-15T12:47:04;1.40;1.00
6756;DHT22;3415;51.148;7.014;2024-01-15T12:49:31;1.40;1.00
6756;DHT22;3415;51.148;7.014;2024-01-15T12:51:59;1.40;1.00
6756;DHT22;3415;51.148;7.014;2024-01-15T12:54:26;1.50;1.00
6756;DHT22;3415;51.148;7.014;2024-01-15T12:56:54;1.50;1.00
6756;DHT22;3415;51.148;7.014;2024-01-15T12:59:21;1.50;1.00
6756;DHT22;3415;51.148;7.014;2024-01-15T13:01:48;1.50;1.00
6756;DHT22;3415;51.148;7.014;2024-01-15T13:04:21;1.60;1.00
6756;DHT22;3415;51.148;7.014;2024-01-15T13:06:48;1.60;1.00
6756;DHT22;3415;51.148;7.014;2024-01-15T13:09:16;1.60;1.00
6756;DHT22;3415;51.148;7.014;2024-01-15T13:11:43;1.70;1.00
6756;DHT22;3415;51.148;7.014;2024-01-15T13:14:11;1.60;1.00
6756;DHT22;3415;51.148;7.014;2024-01-15T13:16:39;1.60;1.00
6756;DHT22;3415;51.148;7.014;2024-01-15T13:19:07;1.60;1.00
6756;DHT22;3415;51.148;7.014;2024-01-15T13:21:34;1.60;1.00
6756;DHT22;3415;51.148;7.014;2024-01-15T13:24:01;1.60;1.00
6756;DHT22;3415;51.148;7.014;2024-01-15T13:28:58;1.70;1.00
6756;DHT22;3415;51.148;7.014;2024-01-15T13:31:27;1.70;1.00
6756;DHT22;3415;51.148;7.014;2024-01-15T13:33:54;1.70;1.00
6756;DHT22;3415;51.148;7.014;2024-01-15T13:36:21;1.70;1.00
6756;DHT22;3415;51.148;7.014;2024-01-15T13:38:48;1.70;1.00
6756;DHT22;3415;51.148;7.014;2024-01-15T13:41:15;1.60;1.00
6756;DHT22;3415;51.148;7.014;2024-01-15T13:43:47;1.60;1.00
6756;DHT22;3415;51.148;7.014;2024-01-15T13:46:14;1.60;1.00
6756;DHT22;3415;51.148;7.014;2024-01-15T13:48:44;1.50;1.00
6756;DHT22;3415;51.148;7.014;2024-01-15T13:51:11;1.60;1.00
6756;DHT22;3415;51.148;7.014;2024-01-15T13:53:37;1.50;1.00
6756;DHT22;3415;51.148;7.014;2024-01-15T13:56:05;1.50;1.00
6756;DHT22;3415;51.148;7.014;2024-01-15T13:58:33;1.50;1.00
6756;DHT22;3415;51.148;7.014;2024-01-15T14:01:00;1.50;1.00
6756;DHT22;3415;51.148;7.014;2024-01-15T14:03:30;1.70;1.00
6756;DHT22;3415;51.148;7.014;2024-01-15T14:05:58;1.50;1.00
6756;DHT22;3415;51.148;7.014;2024-01-15T14:08:25;1.50;1.00
6756;DHT22;3415;51.148;7.014;2024-01-15T14:10:51;1.50;1.00
6756;DHT22;3415;51.148;7.014;2024-01-15T14:13:19;1.50;1.00
6756;DHT22;3415;51.148;7.014;2024-01-15T14:15:46;1.40;1.00
6756;DHT22;3415;51.148;7.014;2024-01-15T14:18:14;1.50;1.00
6756;DHT22;3415;51.148;7.014;2024-01-15T14:20:41;1.50;1.00
6756;DHT22;3415;51.148;7.014;2024-01-15T14:23:09;1.60;1.00
6756;DHT22;3415;51.148;7.014;2024-01-15T14:25:36;1.60;1.00
6756;DHT22;3415;51.148;7.014;2024-01-15T14:28:03;1.50;1.00
6756;DHT22;3415;51.148;7.014;2024-01-15T14:30:30;1.50;1.00
6756;DHT22;3415;51.148;7.014;2024-01-15T14:32:57;1.40;1.00
6756;DHT22;3415;51.148;7.014;2024-01-15T14:37:51;1.60;1.00
6756;DHT22;3415;51.148;7.014;2024-01-15T14:40:19;1.40;1.00
6756;DHT22;3415;51.148;7.014;2024-01-15T14:45:13;1.50;1.00
6756;DHT22;3415;51.148;7.014;2024-01-15T14:47:40;1.50;1.00
6756;DHT22;3415;51.148;7.014;2024-01-15T14:50:08;1.50;1.00
6756;DHT22;3415;51.148;7.014;2024-01-15T14:52:36;1.50;1.00
6756;DHT22;3415;51.148;7.014;2024-01-15T14:55:04;1.50;1.00
6756;DHT22;3415;51.148;7.014;2024-01-15T14:57:32;1.40;1.00
6756;DHT22;3415;51.148;7.014;2024-01-15T14:59:59;1.50;1.00
6756;DHT22;3415;51.148;7.014;2024-01-15T15:02:26;1.50;1.00
6756;DHT22;3415;51.148;7.014;2024-01-15T15:04:54;1.50;1.00
6756;DHT22;3415;51.148;7.014;2024-01-15T15:07:22;1.50;1.00
6756;DHT22;3415;51.148;7.014;2024-01-15T15:09:49;1.50;1.00
6756;DHT22;3415;51.148;7.014;2024-01-15T15:12:16;1.40;1.00
6756;DHT22;3415;51.148;7.014;2024-01-15T15:14:45;1.40;99.90
6756;DHT22;3415;51.148;7.014;2024-01-15T15:17:11;1.50;99.90
6756;DHT22;3415;51.148;7.014;2024-01-15T15:19:38;1.40;99.90
6756;DHT22;3415;51.148;7.014;2024-01-15T15:22:06;1.40;99.90
6756;DHT22;3415;51.148;7.014;2024-01-15T15:24:36;1.40;99.90
6756;DHT22;3415;51.148;7.014;2024-01-15T15:29:31;1.50;99.90
6756;DHT22;3415;51.148;7.014;2024-01-15T15:31:59;1.50;99.90
6756;DHT22;3415;51.148;7.014;2024-01-15T15:36:53;1.40;99.90
6756;DHT22;3415;51.148;7.014;2024-01-15T15:39:19;1.40;99.90
6756;DHT22;3415;51.148;7.014;2024-01-15T15:41:46;1.40;99.90
6756;DHT22;3415;51.148;7.014;2024-01-15T15:44:14;1.40;99.90
6756;DHT22;3415;51.148;7.014;2024-01-15T15:46:42;1.40;99.90
6756;DHT22;3415;51.148;7.014;2024-01-15T15:49:10;1.60;99.90
6756;DHT22;3415;51.148;7.014;2024-01-15T15:51:37;1.30;99.90
6756;DHT22;3415;51.148;7.014;2024-01-15T15:54:04;1.20;99.90
6756;DHT22;3415;51.148;7.014;2024-01-15T15:56:32;1.20;1.00
6756;DHT22;3415;51.148;7.014;2024-01-15T16:01:27;1.20;1.00
6756;DHT22;3415;51.148;7.014;2024-01-15T16:03:54;1.20;1.00
6756;DHT22;3415;51.148;7.014;2024-01-15T16:06:22;1.10;1.00
6756;DHT22;3415;51.148;7.014;2024-01-15T16:08:49;1.10;1.00
6756;DHT22;3415;51.148;7.014;2024-01-15T16:11:16;1.20;1.00
6756;DHT22;3415;51.148;7.014;2024-01-15T16:13:43;1.20;1.00
6756;DHT22;3415;51.148;7.014;2024-01-15T16:16:10;1.20;1.00
6756;DHT22;3415;51.148;7.014;2024-01-15T16:18:37;1.20;1.00
6756;DHT22;3415;51.148;7.014;2024-01-15T16:21:04;1.10;1.00
6756;DHT22;3415;51.148;7.014;2024-01-15T16:23:32;1.10;1.00
6756;DHT22;3415;51.148;7.014;2024-01-15T16:25:59;1.10;1.00
6756;DHT22;3415;51.148;7.014;2024-01-15T16:28:25;1.20;1.00
6756;DHT22;3415;51.148;7.014;2024-01-15T16:33:19;1.10;1.00
6756;DHT22;3415;51.148;7.014;2024-01-15T16:38:13;1.10;1.00
6756;DHT22;3415;51.148;7.014;2024-01-15T16:40:41;1.10;1.00
6756;DHT22;3415;51.148;7.014;2024-01-15T16:43:08;1.20;1.00
6756;DHT22;3415;51.148;7.014;2024-01-15T16:45:35;1.20;1.00
6756;DHT22;3415;51.148;7.014;2024-01-15T16:48:02;1.10;1.00
6756;DHT22;3415;51.148;7.014;2024-01-15T16:50:29;1.10;1.00
6756;DHT22;3415;51.148;7.014;2024-01-15T16:52:56;1.10;1.00
6756;DHT22;3415;51.148;7.014;2024-01-15T16:55:23;1.10;1.00
6756;DHT22;3415;51.148;7.014;2024-01-15T16:57:51;1.20;1.00
6756;DHT22;3415;51.148;7.014;2024-01-15T17:00:18;1.10;1.00
6756;DHT22;3415;51.148;7.014;2024-01-15T17:02:45;1.10;1.00
6756;DHT22;3415;51.148;7.014;2024-01-15T17:05:12;1.10;1.00
6756;DHT22;3415;51.148;7.014;2024-01-15T17:07:40;1.10;1.00
6756;DHT22;3415;51.148;7.014;2024-01-15T17:10:07;1.10;1.00
6756;DHT22;3415;51.148;7.014;2024-01-15T17:12:34;1.10;1.00
6756;DHT22;3415;51.148;7.014;2024-01-15T17:15:02;1.10;1.00
6756;DHT22;3415;51.148;7.014;2024-01-15T17:17:29;1.10;1.00
6756;DHT22;3415;51.148;7.014;2024-01-15T17:19:56;1.10;1.00
6756;DHT22;3415;51.148;7.014;2024-01-15T17:22:23;1.10;1.00
6756;DHT22;3415;51.148;7.014;2024-01-15T17:24:50;1.10;1.00
6756;DHT22;3415;51.148;7.014;2024-01-15T17:27:17;1.10;1.00
6756;DHT22;3415;51.148;7.014;2024-01-15T17:29:44;1.10;1.00
6756;DHT22;3415;51.148;7.014;2024-01-15T17:32:12;1.10;1.00
6756;DHT22;3415;51.148;7.014;2024-01-15T17:34:39;1.10;1.00
6756;DHT22;3415;51.148;7.014;2024-01-15T17:37:05;2.10;1.00
6756;DHT22;3415;51.148;7.014;2024-01-15T17:39:32;1.00;1.00
6756;DHT22;3415;51.148;7.014;2024-01-15T17:41:59;1.00;1.00
6756;DHT22;3415;51.148;7.014;2024-01-15T17:44:26;1.00;1.00
6756;DHT22;3415;51.148;7.014;2024-01-15T17:46:52;1.00;1.00
6756;DHT22;3415;51.148;7.014;2024-01-15T17:49:22;1.10;1.00
6756;DHT22;3415;51.148;7.014;2024-01-15T17:51:49;1.00;1.00
6756;DHT22;3415;51.148;7.014;2024-01-15T17:54:15;1.00;1.00
6756;DHT22;3415;51.148;7.014;2024-01-15T17:56:42;1.10;1.00
6756;DHT22;3415;51.148;7.014;2024-01-15T17:59:09;1.00;1.00
6756;DHT22;3415;51.148;7.014;2024-01-15T18:01:36;1.00;1.00
6756;DHT22;3415;51.148;7.014;2024-01-15T18:04:07;1.00;1.00
6756;DHT22;3415;51.148;7.014;2024-01-15T18:06:35;1.00;1.00
6756;DHT22;3415;51.148;7.014;2024-01-15T18:09:02;1.00;1.00
6756;DHT22;3415;51.148;7.014;2024-01-15T18:13:57;1.00;1.00
6756;DHT22;3415;51.148;7.014;2024-01-15T18:21:21;1.00;1.00
6756;DHT22;3415;51.148;7.014;2024-01-15T18:23:49;1.00;1.00
6756;DHT22;3415;51.148;7.014;2024-01-15T18:26:16;1.10;1.00
6756;DHT22;3415;51.148;7.014;2024-01-15T18:28:43;1.00;1.00
6756;DHT22;3415;51.148;7.014;2024-01-15T18:31:10;1.10;1.00
6756;DHT22;3415;51.148;7.014;2024-01-15T18:33:37;1.10;1.00
6756;DHT22;3415;51.148;7.014;2024-01-15T18:36:05;1.00;1.00
6756;DHT22;3415;51.148;7.014;2024-01-15T18:41:01;1.00;1.00
6756;DHT22;3415;51.148;7.014;2024-01-15T18:43:30;1.10;1.00
6756;DHT22;3415;51.148;7.014;2024-01-15T18:45:57;1.10;1.00
6756;DHT22;3415;51.148;7.014;2024-01-15T18:48:26;1.10;1.00
6756;DHT22;3415;51.148;7.014;2024-01-15T18:50:52;1.00;99.90
6756;DHT22;3415;51.148;7.014;2024-01-15T18:53:20;1.00;99.90
6756;DHT22;3415;51.148;7.014;2024-01-15T18:55:47;1.00;99.90
6756;DHT22;3415;51.148;7.014;2024-01-15T18:58:15;1.00;99.90
6756;DHT22;3415;51.148;7.014;2024-01-15T19:00:42;1.00;99.90
6756;DHT22;3415;51.148;7.014;2024-01-15T19:03:09;1.00;99.90
6756;DHT22;3415;51.148;7.014;2024-01-15T19:05:38;1.00;99.90
6756;DHT22;3415;51.148;7.014;2024-01-15T19:08:05;1.00;99.90
6756;DHT22;3415;51.148;7.014;2024-01-15T19:10:32;1.00;99.90
6756;DHT22;3415;51.148;7.014;2024-01-15T19:12:58;1.00;99.90
6756;DHT22;3415;51.148;7.014;2024-01-15T19:15:27;1.00;99.90
6756;DHT22;3415;51.148;7.014;2024-01-15T19:17:53;1.00;99.90
6756;DHT22;3415;51.148;7.014;2024-01-15T19:20:20;1.00;99.90
6756;DHT22;3415;51.148;7.014;2024-01-15T19:22:47;1.00;99.90
6756;DHT22;3415;51.148;7.014;2024-01-15T19:25:14;1.00;99.90
6756;DHT22;3415;51.148;7.014;2024-01-15T19:27:41;0.90;99.90
6756;DHT22;3415;51.148;7.014;2024-01-15T19:30:11;1.00;99.90
6756;DHT22;3415;51.148;7.014;2024-01-15T19:32:40;1.00;99.90
6756;DHT22;3415;51.148;7.014;2024-01-15T19:35:08;1.00;99.90
6756;DHT22;3415;51.148;7.014;2024-01-15T19:37:34;1.00;99.90
6756;DHT22;3415;51.148;7.014;2024-01-15T19:40:01;1.00;99.90
6756;DHT22;3415;51.148;7.014;2024-01-15T19:42:28;1.00;99.90
6756;DHT22;3415;51.148;7.014;2024-01-15T19:44:55;1.10;99.90
6756;DHT22;3415;51.148;7.014;2024-01-15T19:47:23;1.00;99.90
6756;DHT22;3415;51.148;7.014;2024-01-15T19:49:52;1.00;99.90
6756;DHT22;3415;51.148;7.014;2024-01-15T19:54:45;0.90;99.90
6756;DHT22;3415;51.148;7.014;2024-01-15T19:59:39;0.90;99.90
6756;DHT22;3415;51.148;7.014;2024-01-15T20:04:33;0.90;99.90
6756;DHT22;3415;51.148;7.014;2024-01-15T20:07:02;1.00;99.90
6756;DHT22;3415;51.148;7.014;2024-01-15T20:09:28;1.00;99.90
6756;DHT22;3415;51.148;7.014;2024-01-15T20:11:55;1.00;99.90
6756;DHT22;3415;51.148;7.014;2024-01-15T20:14:22;0.90;99.90
6756;DHT22;3415;51.148;7.014;2024-01-15T20:16:50;0.90;99.90
6756;DHT22;3415;51.148;7.014;2024-01-15T20:21:44;0.90;99.90
6756;DHT22;3415;51.148;7.014;2024-01-15T20:24:12;0.90;99.90
6756;DHT22;3415;51.148;7.014;2024-01-15T20:26:39;0.90;99.90
6756;DHT22;3415;51.148;7.014;2024-01-15T20:29:05;0.90;99.90
6756;DHT22;3415;51.148;7.014;2024-01-15T20:31:33;0.90;99.90
6756;DHT22;3415;51.148;7.014;2024-01-15T20:34:00;0.90;99.90
6756;DHT22;3415;51.148;7.014;2024-01-15T20:36:27;0.90;99.90
6756;DHT22;3415;51.148;7.014;2024-01-15T20:38:54;0.90;99.90
6756;DHT22;3415;51.148;7.014;2024-01-15T20:41:23;0.90;99.90
6756;DHT22;3415;51.148;7.014;2024-01-15T20:43:50;0.90;99.90
6756;DHT22;3415;51.148;7.014;2024-01-15T20:46:17;0.90;99.90
6756;DHT22;3415;51.148;7.014;2024-01-15T20:48:43;0.90;99.90
6756;DHT22;3415;51.148;7.014;2024-01-15T20:51:10;1.00;99.90
6756;DHT22;3415;51.148;7.014;2024-01-15T20:53:39;0.90;99.90
6756;DHT22;3415;51.148;7.014;2024-01-15T20:56:06;0.90;99.90
6756;DHT22;3415;51.148;7.014;2024-01-15T20:58:34;0.90;99.90
6756;DHT22;3415;51.148;7.014;2024-01-15T21:01:04;0.90;99.90
6756;DHT22;3415;51.148;7.014;2024-01-15T21:03:30;0.90;99.90
6756;DHT22;3415;51.148;7.014;2024-01-15T21:05:57;0.90;99.90
6756;DHT22;3415;51.148;7.014;2024-01-15T21:08:24;0.90;99.90
6756;DHT22;3415;51.148;7.014;2024-01-15T21:10:51;0.90;99.90
6756;DHT22;3415;51.148;7.014;2024-01-15T21:15:46;0.90;99.90
6756;DHT22;3415;51.148;7.014;2024-01-15T21:18:13;0.90;99.90
6756;DHT22;3415;51.148;7.014;2024-01-15T21:23:10;0.80;99.90
6756;DHT22;3415;51.148;7.014;2024-01-15T21:25:36;0.80;99.90
6756;DHT22;3415;51.148;7.014;2024-01-15T21:28:04;0.80;99.90
6756;DHT22;3415;51.148;7.014;2024-01-15T21:30:32;0.90;99.90
6756;DHT22;3415;51.148;7.014;2024-01-15T21:33:02;0.90;99.90
6756;DHT22;3415;51.148;7.014;2024-01-15T21:35:30;0.90;99.90
6756;DHT22;3415;51.148;7.014;2024-01-15T21:37:57;0.90;99.90
6756;DHT22;3415;51.148;7.014;2024-01-15T21:42:51;0.90;99.90
6756;DHT22;3415;51.148;7.014;2024-01-15T21:45:18;0.90;99.90
6756;DHT22;3415;51.148;7.014;2024-01-15T21:47:44;0.90;99.90
6756;DHT22;3415;51.148;7.014;2024-01-15T21:50:13;0.80;99.90
6756;DHT22;3415;51.148;7.014;2024-01-15T21:52:40;0.90;99.90
6756;DHT22;3415;51.148;7.014;2024-01-15T21:55:07;0.90;99.90
6756;DHT22;3415;51.148;7.014;2024-01-15T22:00:02;0.90;99.90
6756;DHT22;3415;51.148;7.014;2024-01-15T22:02:33;0.90;99.90
6756;DHT22;3415;51.148;7.014;2024-01-15T22:05:06;0.90;99.90
6756;DHT22;3415;51.148;7.014;2024-01-15T22:07:36;0.90;99.90
6756;DHT22;3415;51.148;7.014;2024-01-15T22:10:04;0.80;99.90
6756;DHT22;3415;51.148;7.014;2024-01-15T22:12:32;0.90;99.90
6756;DHT22;3415;51.148;7.014;2024-01-15T22:14:59;0.90;99.90
6756;DHT22;3415;51.148;7.014;2024-01-15T22:17:26;0.90;99.90
6756;DHT22;3415;51.148;7.014;2024-01-15T22:19:53;0.90;99.90
6756;DHT22;3415;51.148;7.014;2024-01-15T22:22:20;1.00;99.90
6756;DHT22;3415;51.148;7.014;2024-01-15T22:24:48;0.90;99.90
6756;DHT22;3415;51.148;7.014;2024-01-15T22:27:14;0.90;99.90
6756;DHT22;3415;51.148;7.014;2024-01-15T22:32:08;0.80;99.90
6756;DHT22;3415;51.148;7.014;2024-01-15T22:37:03;0.90;99.90
6756;DHT22;3415;51.148;7.014;2024-01-15T22:39:30;0.90;99.90
6756;DHT22;3415;51.148;7.014;2024-01-15T22:41:58;0.90;99.90
6756;DHT22;3415;51.148;7.014;2024-01-15T22:44:25;1.00;99.90
6756;DHT22;3415;51.148;7.014;2024-01-15T22:49:19;1.00;99.90
6756;DHT22;3415;51.148;7.014;2024-01-15T22:51:46;1.00;99.90
6756;DHT22;3415;51.148;7.014;2024-01-15T22:54:12;1.00;99.90
6756;DHT22;3415;51.148;7.014;2024-01-15T22:56:39;1.00;99.90
6756;DHT22;3415;51.148;7.014;2024-01-15T22:59:07;1.10;99.90
6756;DHT22;3415;51.148;7.014;2024-01-15T23:01:34;1.10;99.90
6756;DHT22;3415;51.148;7.014;2024-01-15T23:04:01;1.10;99.90
6756;DHT22;3415;51.148;7.014;2024-01-15T23:11:22;1.10;99.90
6756;DHT22;3415;51.148;7.014;2024-01-15T23:16:18;1.00;99.90
6756;DHT22;3415;51.148;7.014;2024-01-15T23:18:45;1.10;99.90
6756;DHT22;3415;51.148;7.014;2024-01-15T23:21:12;1.00;99.90
6756;DHT22;3415;51.148;7.014;2024-01-15T23:23:38;1.00;99.90
6756;DHT22;3415;51.148;7.014;2024-01-15T23:26:05;1.10;99.90
6756;DHT22;3415;51.148;7.014;2024-01-15T23:28:33;1.10;99.90
6756;DHT22;3415;51.148;7.014;2024-01-15T23:33:29;1.20;99.90
6756;DHT22;3415;51.148;7.014;2024-01-15T23:35:56;1.00;99.90
6756;DHT22;3415;51.148;7.014;2024-01-15T23:38:27;1.10;99.90
6756;DHT22;3415;51.148;7.014;2024-01-15T23:43:22;1.10;99.90
6756;DHT22;3415;51.148;7.014;2024-01-15T23:45:49;1.10;99.90
6756;DHT22;3415;51.148;7.014;2024-01-15T23:48:16;1.10;99.90
6756;DHT22;3415;51.148;7.014;2024-01-15T23:50:44;1.10;99.90
6756;DHT22;3415;51.148;7.014;2024-01-15T23:53:10;1.10;99.90
6756;DHT22;3415;51.148;7.014;2024-01-15T23:55:37;1.10;99.90
6756;DHT22;3415;51.148;7.014;2024-01-15T23:58:05;1.10;99.90
